sensor_id;sensor_type;location;lat;lon;timestamp;temperature;humidity
19813;DHT22;10066;48.108;11.448;2023-04-30T00:02:08;11.20;99.90
19813;DHT22;10066;48.108;11.448;2023-04-30T00:04:36;11.20;99.90
19813;DHT22;10066;48.108;11.448;2023-04-30T00:07:03;11.10;99.90
19813;DHT22;10066;48.108;11.448;2023-04-30T00:09:30;11.10;99.90
19813;DHT22;10066;48.108;11.448;2023-04-30T00:11:57;11.10;99.90
19813;DHT22;10066;48.108;11.448;2023-04-30T00:14:24;11.10;99.90
19813;DHT22;10066;48.108;11.448;2023-04-30T00:16:51;11.10;99.90
19813;DHT22;10066;48.108;11.448;2023-04-30T00:19:18;11.10;99.90
19813;DHT22;10066;48.108;11.448;2023-04-30T00:21:46;11.10;99.90
19813;DHT22;10066;48.108;11.448;2023-04-30T00:24:13;11.00;99.90
19813;DHT22;10066;48.108;11.448;2023-04-30T00:26:40;11.00;99.90
19813;DHT22;10066;48.108;11.448;2023-04-30T00:29:08;11.00;99.90
19813;DHT22;10066;48.108;11.448;2023-04-30T00:31:35;11.00;99.90
19813;DHT22;10066;48.108;11.448;2023-04-30T00:34:02;11.00;99.90
19813;DHT22;10066;48.108;11.448;2023-04-30T00:36:29;10.90;99.90
19813;DHT22;10066;48.108;11.448;2023-04-30T00:38:58;11.00;99.90
19813;DHT22;10066;48.108;11.448;2023-04-30T00:41:25;11.00;99.90
19813;DHT22;10066;48.108;11.448;2023-04-30T00:43:52;11.00;99.90
19813;DHT22;10066;48.108;11.448;2023-04-30T00:46:19;11.00;99.90
19813;DHT22;10066;48.108;11.448;2023-04-30T00:48:46;10.90;99.90
19813;DHT22;10066;48.108;11.448;2023-04-30T00:51:14;10.90;99.90
19813;DHT22;10066;48.108;11.448;2023-04-30T00:53:40;10.90;99.90
19813;DHT22;10066;48.108;11.448;2023-04-30T00:56:09;10.90;99.90
19813;DHT22;10066;48.108;11.448;2023-04-30T00:58:36;10.90;99.90
19813;DHT22;10066;48.108;11.448;2023-04-30T01:01:02;10.90;99.90
19813;DHT22;10066;48.108;11.448;2023-04-30T01:03:29;10.80;99.90
19813;DHT22;10066;48.108;11.448;2023-04-30T01:05:56;10.80;99.90
19813;DHT22;10066;48.108;11.448;2023-04-30T01:08:24;10.80;99.90
19813;DHT22;10066;48.108;11.448;2023-04-30T01:10:58;10.70;99.90
19813;DHT22;10066;48.108;11.448;2023-04-30T01:13:43;10.70;99.90
19813;DHT22;10066;48.108;11.448;2023-04-30T01:16:16;10.70;99.90
19813;DHT22;10066;48.108;11.448;2023-04-30T01:18:48;10.70;99.90
19813;DHT22;10066;48.108;11.448;2023-04-30T01:21:18;10.60;99.90
19813;DHT22;10066;48.108;11.448;2023-04-30T01:26:47;10.50;99.90
19813;DHT22;10066;48.108;11.448;2023-04-30T01:29:21;10.50;99.90
19813;DHT22;10066;48.108;11.448;2023-04-30T01:31:49;10.50;99.90
19813;DHT22;10066;48.108;11.448;2023-04-30T01:34:16;10.50;99.90
19813;DHT22;10066;48.108;11.448;2023-04-30T01:36:51;10.40;99.90
19813;DHT22;10066;48.108;11.448;2023-04-30T01:39:41;10.40;99.90
19813;DHT22;10066;48.108;11.448;2023-04-30T01:42:15;10.40;99.90
19813;DHT22;10066;48.108;11.448;2023-04-30T01:45:03;10.40;99.90
19813;DHT22;10066;48.108;11.448;2023-04-30T01:47:38;10.30;99.90
19813;DHT22;10066;48.108;11.448;2023-04-30T01:50:14;10.30;99.90
19813;DHT22;10066;48.108;11.448;2023-04-30T01:52:46;10.30;99.90
19813;DHT22;10066;48.108;11.448;2023-04-30T01:55:20;10.30;99.90
19813;DHT22;10066;48.108;11.448;2023-04-30T01:57:54;10.30;99.90
19813;DHT22;10066;48.108;11.448;2023-04-30T02:00:24;10.30;99.90
19813;DHT22;10066;48.108;11.448;2023-04-30T02:02:51;10.30;99.90
19813;DHT22;10066;48.108;11.448;2023-04-30T02:05:18;10.30;99.90
19813;DHT22;10066;48.108;11.448;2023-04-30T02:07:47;10.30;99.90
19813;DHT22;10066;48.108;11.448;2023-04-30T02:10:16;10.30;99.90
19813;DHT22;10066;48.108;11.448;2023-04-30T02:12:43;10.30;99.90
19813;DHT22;10066;48.108;11.448;2023-04-30T02:15:10;10.30;99.90
19813;DHT22;10066;48.108;11.448;2023-04-30T02:17:39;10.30;99.90
19813;DHT22;10066;48.108;11.448;2023-04-30T02:20:07;10.30;99.90
19813;DHT22;10066;48.108;11.448;2023-04-30T02:22:34;10.30;99.90
19813;DHT22;10066;48.108;11.448;2023-04-30T02:25:01;10.20;99.90
19813;DHT22;10066;48.108;11.448;2023-04-30T02:27:30;10.20;99.90
19813;DHT22;10066;48.108;11.448;2023-04-30T02:29:57;10.20;99.90
19813;DHT22;10066;48.108;11.448;2023-04-30T02:32:24;10.20;99.90
19813;DHT22;10066;48.108;11.448;2023-04-30T02:34:53;10.20;99.90
19813;DHT22;10066;48.108;11.448;2023-04-30T02:37:20;10.20;99.90
19813;DHT22;10066;48.108;11.448;2023-04-30T02:39:47;10.20;99.90
19813;DHT22;10066;48.108;11.448;2023-04-30T02:42:14;10.10;99.90
19813;DHT22;10066;48.108;11.448;2023-04-30T02:44:41;10.20;99.90
19813;DHT22;10066;48.108;11.448;2023-04-30T02:47:08;10.10;99.90
19813;DHT22;10066;48.108;11.448;2023-04-30T02:49:35;10.10;99.90
19813;DHT22;10066;48.108;11.448;2023-04-30T02:52:03;10.10;99.90
19813;DHT22;10066;48.108;11.448;2023-04-30T02:54:30;10.10;99.90
19813;DHT22;10066;48.108;11.448;2023-04-30T02:56:57;10.10;99.90
19813;DHT22;10066;48.108;11.448;2023-04-30T02:59:24;10.00;99.90
19813;DHT22;10066;48.108;11.448;2023-04-30T03:01:51;10.00;99.90
19813;DHT22;10066;48.108;11.448;2023-04-30T03:04:18;9.90;99.90
19813;DHT22;10066;48.108;11.448;2023-04-30T03:06:45;9.90;99.90
19813;DHT22;10066;48.108;11.448;2023-04-30T03:09:14;9.90;99.90
19813;DHT22;10066;48.108;11.448;2023-04-30T03:11:40;9.90;99.90
19813;DHT22;10066;48.108;11.448;2023-04-30T03:14:07;9.90;99.90
19813;DHT22;10066;48.108;11.448;2023-04-30T03:16:35;9.90;99.90
19813;DHT22;10066;48.108;11.448;2023-04-30T03:19:01;9.90;99.90
19813;DHT22;10066;48.108;11.448;2023-04-30T03:21:28;9.90;99.90
19813;DHT22;10066;48.108;11.448;2023-04-30T03:23:55;9.90;99.90
19813;DHT22;10066;48.108;11.448;2023-04-30T03:26:23;8.80;99.90
19813;DHT22;10066;48.108;11.448;2023-04-30T03:28:50;9.80;99.90
19813;DHT22;10066;48.108;11.448;2023-04-30T03:31:19;9.80;99.90
19813;DHT22;10066;48.108;11.448;2023-04-30T03:33:46;9.70;99.90
19813;DHT22;10066;48.108;11.448;2023-04-30T03:36:13;9.70;99.90
19813;DHT22;10066;48.108;11.448;2023-04-30T03:38:40;9.90;99.90
19813;DHT22;10066;48.108;11.448;2023-04-30T03:41:07;9.60;99.90
19813;DHT22;10066;48.108;11.448;2023-04-30T03:43:35;9.50;99.90
19813;DHT22;10066;48.108;11.448;2023-04-30T03:46:03;9.50;99.90
19813;DHT22;10066;48.108;11.448;2023-04-30T03:48:30;9.40;99.90
19813;DHT22;10066;48.108;11.448;2023-04-30T03:50:57;9.40;99.90
19813;DHT22;10066;48.108;11.448;2023-04-30T03:53:23;9.40;99.90
19813;DHT22;10066;48.108;11.448;2023-04-30T03:55:52;9.30;99.90
19813;DHT22;10066;48.108;11.448;2023-04-30T03:58:19;9.30;99.90
19813;DHT22;10066;48.108;11.448;2023-04-30T04:00:48;9.30;99.90
19813;DHT22;10066;48.108;11.448;2023-04-30T04:03:15;9.30;99.90
19813;DHT22;10066;48.108;11.448;2023-04-30T04:05:42;9.20;99.90
19813;DHT22;10066;48.108;11.448;2023-04-30T04:08:09;9.20;99.90
19813;DHT22;10066;48.108;11.448;2023-04-30T04:10:36;9.20;99.90
19813;DHT22;10066;48.108;11.448;2023-04-30T04:13:04;9.20;99.90
19813;DHT22;10066;48.108;11.448;2023-04-30T04:15:32;9.20;99.90
19813;DHT22;10066;48.108;11.448;2023-04-30T04:18:00;9.20;99.90
19813;DHT22;10066;48.108;11.448;2023-04-30T04:20:27;9.20;99.90
19813;DHT22;10066;48.108;11.448;2023-04-30T04:22:54;9.20;99.90
19813;DHT22;10066;48.108;11.448;2023-04-30T04:25:21;9.30;99.90
19813;DHT22;10066;48.108;11.448;2023-04-30T04:27:50;9.30;99.90
19813;DHT22;10066;48.108;11.448;2023-04-30T04:30:18;9.40;99.90
19813;DHT22;10066;48.108;11.448;2023-04-30T04:32:45;9.40;99.90
19813;DHT22;10066;48.108;11.448;2023-04-30T04:35:19;9.40;99.90
19813;DHT22;10066;48.108;11.448;2023-04-30T04:37:46;9.40;99.90
19813;DHT22;10066;48.108;11.448;2023-04-30T04:40:13;9.50;99.90
19813;DHT22;10066;48.108;11.448;2023-04-30T04:42:40;9.50;99.90
19813;DHT22;10066;48.108;11.448;2023-04-30T04:45:08;9.60;99.90
19813;DHT22;10066;48.108;11.448;2023-04-30T04:47:35;9.60;99.90
19813;DHT22;10066;48.108;11.448;2023-04-30T04:50:03;9.70;99.90
19813;DHT22;10066;48.108;11.448;2023-04-30T04:52:32;9.70;99.90
19813;DHT22;10066;48.108;11.448;2023-04-30T04:54:59;9.70;99.90
19813;DHT22;10066;48.108;11.448;2023-04-30T04:57:26;9.80;99.90
19813;DHT22;10066;48.108;11.448;2023-04-30T04:59:53;9.80;99.90
19813;DHT22;10066;48.108;11.448;2023-04-30T05:02:20;9.80;99.90
19813;DHT22;10066;48.108;11.448;2023-04-30T05:04:47;9.80;99.90
19813;DHT22;10066;48.108;11.448;2023-04-30T05:07:15;9.90;99.90
19813;DHT22;10066;48.108;11.448;2023-04-30T05:09:44;9.90;99.90
19813;DHT22;10066;48.108;11.448;2023-04-30T05:12:11;9.90;99.90
19813;DHT22;10066;48.108;11.448;2023-04-30T05:14:38;9.90;99.90
19813;DHT22;10066;48.108;11.448;2023-04-30T05:17:05;9.90;99.90
19813;DHT22;10066;48.108;11.448;2023-04-30T05:19:33;10.00;99.90
19813;DHT22;10066;48.108;11.448;2023-04-30T05:22:00;10.00;99.90
19813;DHT22;10066;48.108;11.448;2023-04-30T05:24:27;10.00;99.90
19813;DHT22;10066;48.108;11.448;2023-04-30T05:26:56;10.00;99.90
19813;DHT22;10066;48.108;11.448;2023-04-30T05:29:23;10.10;99.90
19813;DHT22;10066;48.108;11.448;2023-04-30T05:31:49;10.10;99.90
19813;DHT22;10066;48.108;11.448;2023-04-30T05:34:16;10.20;99.90
19813;DHT22;10066;48.108;11.448;2023-04-30T05:36:43;10.20;99.90
19813;DHT22;10066;48.108;11.448;2023-04-30T05:39:10;10.30;99.90
19813;DHT22;10066;48.108;11.448;2023-04-30T05:41:37;10.20;99.90
19813;DHT22;10066;48.108;11.448;2023-04-30T05:44:05;10.20;99.90
19813;DHT22;10066;48.108;11.448;2023-04-30T05:46:32;10.10;99.90
19813;DHT22;10066;48.108;11.448;2023-04-30T05:49:00;10.20;99.90
19813;DHT22;10066;48.108;11.448;2023-04-30T05:51:27;10.20;99.90
19813;DHT22;10066;48.108;11.448;2023-04-30T05:53:54;10.30;99.90
19813;DHT22;10066;48.108;11.448;2023-04-30T05:56:22;10.30;99.90
19813;DHT22;10066;48.108;11.448;2023-04-30T05:58:49;10.30;99.90
19813;DHT22;10066;48.108;11.448;2023-04-30T06:01:18;10.30;99.90
19813;DHT22;10066;48.108;11.448;2023-04-30T06:03:45;10.40;99.90
19813;DHT22;10066;48.108;11.448;2023-04-30T06:06:12;10.50;99.90
19813;DHT22;10066;48.108;11.448;2023-04-30T06:08:39;10.60;99.90
19813;DHT22;10066;48.108;11.448;2023-04-30T06:11:09;10.70;99.90
19813;DHT22;10066;48.108;11.448;2023-04-30T06:13:37;10.80;99.90
19813;DHT22;10066;48.108;11.448;2023-04-30T06:16:05;10.90;99.90
19813;DHT22;10066;48.108;11.448;2023-04-30T06:18:33;10.90;99.90
19813;DHT22;10066;48.108;11.448;2023-04-30T06:21:00;11.00;99.90
19813;DHT22;10066;48.108;11.448;2023-04-30T06:23:27;11.20;99.90
19813;DHT22;10066;48.108;11.448;2023-04-30T06:25:54;11.30;99.90
19813;DHT22;10066;48.108;11.448;2023-04-30T06:28:21;11.40;99.90
19813;DHT22;10066;48.108;11.448;2023-04-30T06:30:49;11.60;99.90
19813;DHT22;10066;48.108;11.448;2023-04-30T06:33:16;11.90;99.90
19813;DHT22;10066;48.108;11.448;2023-04-30T06:35:44;12.10;99.90
19813;DHT22;10066;48.108;11.448;2023-04-30T06:38:12;12.20;99.90
19813;DHT22;10066;48.108;11.448;2023-04-30T06:40:38;12.30;99.90
19813;DHT22;10066;48.108;11.448;2023-04-30T06:43:06;12.70;99.90
19813;DHT22;10066;48.108;11.448;2023-04-30T06:45:32;12.50;99.90
19813;DHT22;10066;48.108;11.448;2023-04-30T06:47:59;12.50;99.90
19813;DHT22;10066;48.108;11.448;2023-04-30T06:50:26;12.50;99.90
19813;DHT22;10066;48.108;11.448;2023-04-30T06:52:55;12.50;99.90
19813;DHT22;10066;48.108;11.448;2023-04-30T06:55:22;12.40;99.90
19813;DHT22;10066;48.108;11.448;2023-04-30T06:57:49;12.50;99.90
19813;DHT22;10066;48.108;11.448;2023-04-30T07:00:15;12.60;99.90
19813;DHT22;10066;48.108;11.448;2023-04-30T07:02:42;12.70;99.90
19813;DHT22;10066;48.108;11.448;2023-04-30T07:05:12;12.80;99.90
19813;DHT22;10066;48.108;11.448;2023-04-30T07:07:39;12.80;99.90
19813;DHT22;10066;48.108;11.448;2023-04-30T07:10:09;12.90;99.90
19813;DHT22;10066;48.108;11.448;2023-04-30T07:12:36;13.00;99.90
19813;DHT22;10066;48.108;11.448;2023-04-30T07:15:03;13.10;99.90
19813;DHT22;10066;48.108;11.448;2023-04-30T07:17:30;13.10;99.90
19813;DHT22;10066;48.108;11.448;2023-04-30T07:19:57;13.20;99.90
19813;DHT22;10066;48.108;11.448;2023-04-30T07:22:29;13.00;99.90
19813;DHT22;10066;48.108;11.448;2023-04-30T07:24:56;13.10;99.90
19813;DHT22;10066;48.108;11.448;2023-04-30T07:27:24;13.20;99.90
19813;DHT22;10066;48.108;11.448;2023-04-30T07:29:51;13.30;99.90
19813;DHT22;10066;48.108;11.448;2023-04-30T07:32:19;13.30;99.90
19813;DHT22;10066;48.108;11.448;2023-04-30T07:34:46;13.50;99.90
19813;DHT22;10066;48.108;11.448;2023-04-30T07:37:13;13.70;99.90
19813;DHT22;10066;48.108;11.448;2023-04-30T07:39:40;13.90;99.90
19813;DHT22;10066;48.108;11.448;2023-04-30T07:42:07;13.80;99.90
19813;DHT22;10066;48.108;11.448;2023-04-30T07:44:40;13.80;99.90
19813;DHT22;10066;48.108;11.448;2023-04-30T07:47:07;13.60;99.90
19813;DHT22;10066;48.108;11.448;2023-04-30T07:49:34;13.80;99.90
19813;DHT22;10066;48.108;11.448;2023-04-30T07:52:01;13.90;99.90
19813;DHT22;10066;48.108;11.448;2023-04-30T07:54:28;14.10;99.90
19813;DHT22;10066;48.108;11.448;2023-04-30T07:56:55;14.10;99.90
19813;DHT22;10066;48.108;11.448;2023-04-30T07:59:22;14.10;99.90
19813;DHT22;10066;48.108;11.448;2023-04-30T08:04:18;14.40;99.90
19813;DHT22;10066;48.108;11.448;2023-04-30T08:06:45;14.50;99.90
19813;DHT22;10066;48.108;11.448;2023-04-30T08:09:12;14.40;99.90
19813;DHT22;10066;48.108;11.448;2023-04-30T08:11:40;14.40;99.90
19813;DHT22;10066;48.108;11.448;2023-04-30T08:14:07;14.20;99.90
19813;DHT22;10066;48.108;11.448;2023-04-30T08:16:34;14.30;99.90
19813;DHT22;10066;48.108;11.448;2023-04-30T08:19:02;14.30;99.90
19813;DHT22;10066;48.108;11.448;2023-04-30T08:21:29;14.30;99.90
19813;DHT22;10066;48.108;11.448;2023-04-30T08:24:00;14.30;99.90
19813;DHT22;10066;48.108;11.448;2023-04-30T08:26:27;14.50;99.90
19813;DHT22;10066;48.108;11.448;2023-04-30T08:28:53;14.60;99.90
19813;DHT22;10066;48.108;11.448;2023-04-30T08:31:21;14.90;99.90
19813;DHT22;10066;48.108;11.448;2023-04-30T08:33:47;14.90;99.90
19813;DHT22;10066;48.108;11.448;2023-04-30T08:36:16;15.00;99.90
19813;DHT22;10066;48.108;11.448;2023-04-30T08:38:43;15.10;99.90
19813;DHT22;10066;48.108;11.448;2023-04-30T08:41:12;15.20;99.90
19813;DHT22;10066;48.108;11.448;2023-04-30T08:43:42;15.20;99.90
19813;DHT22;10066;48.108;11.448;2023-04-30T08:46:10;15.20;99.90
19813;DHT22;10066;48.108;11.448;2023-04-30T08:48:40;15.30;99.90
19813;DHT22;10066;48.108;11.448;2023-04-30T08:51:07;15.40;99.90
19813;DHT22;10066;48.108;11.448;2023-04-30T08:53:36;15.40;99.90
19813;DHT22;10066;48.108;11.448;2023-04-30T08:56:14;15.50;99.90
19813;DHT22;10066;48.108;11.448;2023-04-30T08:58:41;15.50;99.90
19813;DHT22;10066;48.108;11.448;2023-04-30T09:01:09;15.30;99.90
19813;DHT22;10066;48.108;11.448;2023-04-30T09:03:37;15.20;99.90
19813;DHT22;10066;48.108;11.448;2023-04-30T09:06:05;15.30;99.90
19813;DHT22;10066;48.108;11.448;2023-04-30T09:08:43;15.40;99.90
19813;DHT22;10066;48.108;11.448;2023-04-30T09:11:22;15.50;99.90
19813;DHT22;10066;48.108;11.448;2023-04-30T09:13:51;15.60;99.90
19813;DHT22;10066;48.108;11.448;2023-04-30T09:16:18;15.70;99.90
19813;DHT22;10066;48.108;11.448;2023-04-30T09:18:46;15.60;99.90
19813;DHT22;10066;48.108;11.448;2023-04-30T09:21:13;15.60;99.90
19813;DHT22;10066;48.108;11.448;2023-04-30T09:23:58;15.60;99.90
19813;DHT22;10066;48.108;11.448;2023-04-30T09:26:30;15.50;99.90
19813;DHT22;10066;48.108;11.448;2023-04-30T09:28:58;15.50;99.90
19813;DHT22;10066;48.108;11.448;2023-04-30T09:31:26;15.30;99.90
19813;DHT22;10066;48.108;11.448;2023-04-30T09:33:53;15.20;99.90
19813;DHT22;10066;48.108;11.448;2023-04-30T09:36:20;15.10;99.90
19813;DHT22;10066;48.108;11.448;2023-04-30T09:38:47;15.10;99.90
19813;DHT22;10066;48.108;11.448;2023-04-30T09:41:23;14.90;99.90
19813;DHT22;10066;48.108;11.448;2023-04-30T09:43:52;14.80;99.90
19813;DHT22;10066;48.108;11.448;2023-04-30T09:46:19;14.70;99.90
19813;DHT22;10066;48.108;11.448;2023-04-30T09:48:55;14.70;99.90
19813;DHT22;10066;48.108;11.448;2023-04-30T09:51:22;14.70;99.90
19813;DHT22;10066;48.108;11.448;2023-04-30T09:53:50;14.70;99.90
19813;DHT22;10066;48.108;11.448;2023-04-30T09:56:22;14.70;99.90
19813;DHT22;10066;48.108;11.448;2023-04-30T09:58:50;14.80;99.90
19813;DHT22;10066;48.108;11.448;2023-04-30T10:01:19;14.80;99.90
19813;DHT22;10066;48.108;11.448;2023-04-30T10:03:47;14.90;99.90
19813;DHT22;10066;48.108;11.448;2023-04-30T10:06:15;14.90;99.90
19813;DHT22;10066;48.108;11.448;2023-04-30T10:08:46;15.00;99.90
19813;DHT22;10066;48.108;11.448;2023-04-30T10:11:17;15.10;99.90
19813;DHT22;10066;48.108;11.448;2023-04-30T10:13:51;15.10;99.90
19813;DHT22;10066;48.108;11.448;2023-04-30T10:16:26;15.10;99.90
19813;DHT22;10066;48.108;11.448;2023-04-30T10:18:58;15.10;99.90
19813;DHT22;10066;48.108;11.448;2023-04-30T10:21:27;15.20;99.90
19813;DHT22;10066;48.108;11.448;2023-04-30T10:23:54;15.20;99.90
19813;DHT22;10066;48.108;11.448;2023-04-30T10:26:21;15.30;99.90
19813;DHT22;10066;48.108;11.448;2023-04-30T10:28:51;15.10;99.90
19813;DHT22;10066;48.108;11.448;2023-04-30T10:31:19;15.10;99.90
19813;DHT22;10066;48.108;11.448;2023-04-30T10:33:53;15.10;99.90
19813;DHT22;10066;48.108;11.448;2023-04-30T10:36:28;15.20;99.90
19813;DHT22;10066;48.108;11.448;2023-04-30T10:38:59;15.30;99.90
19813;DHT22;10066;48.108;11.448;2023-04-30T10:41:27;15.40;99.90
19813;DHT22;10066;48.108;11.448;2023-04-30T10:44:00;15.50;99.90
19813;DHT22;10066;48.108;11.448;2023-04-30T10:46:29;15.80;99.90
19813;DHT22;10066;48.108;11.448;2023-04-30T10:48:57;15.90;99.90
19813;DHT22;10066;48.108;11.448;2023-04-30T10:51:44;15.90;99.90
19813;DHT22;10066;48.108;11.448;2023-04-30T10:54:13;16.00;99.90
19813;DHT22;10066;48.108;11.448;2023-04-30T10:56:43;16.20;99.90
19813;DHT22;10066;48.108;11.448;2023-04-30T10:59:13;16.40;99.90
19813;DHT22;10066;48.108;11.448;2023-04-30T11:01:57;16.40;99.90
19813;DHT22;10066;48.108;11.448;2023-04-30T11:04:25;16.60;99.90
19813;DHT22;10066;48.108;11.448;2023-04-30T11:07:00;16.60;99.90
19813;DHT22;10066;48.108;11.448;2023-04-30T11:09:36;16.60;99.90
19813;DHT22;10066;48.108;11.448;2023-04-30T11:12:08;16.50;99.90
19813;DHT22;10066;48.108;11.448;2023-04-30T11:14:42;16.50;99.90
19813;DHT22;10066;48.108;11.448;2023-04-30T11:17:10;16.60;99.90
19813;DHT22;10066;48.108;11.448;2023-04-30T11:19:47;16.70;99.90
19813;DHT22;10066;48.108;11.448;2023-04-30T11:22:16;16.60;99.90
19813;DHT22;10066;48.108;11.448;2023-04-30T11:24:53;16.40;99.90
19813;DHT22;10066;48.108;11.448;2023-04-30T11:27:22;16.30;99.90
19813;DHT22;10066;48.108;11.448;2023-04-30T11:29:52;16.10;99.90
19813;DHT22;10066;48.108;11.448;2023-04-30T11:32:20;15.80;99.90
19813;DHT22;10066;48.108;11.448;2023-04-30T11:34:47;15.60;99.90
19813;DHT22;10066;48.108;11.448;2023-04-30T11:37:18;15.40;99.90
19813;DHT22;10066;48.108;11.448;2023-04-30T11:39:46;15.60;99.90
19813;DHT22;10066;48.108;11.448;2023-04-30T11:42:17;15.80;99.90
19813;DHT22;10066;48.108;11.448;2023-04-30T11:44:44;16.00;99.90
19813;DHT22;10066;48.108;11.448;2023-04-30T11:47:13;16.10;99.90
19813;DHT22;10066;48.108;11.448;2023-04-30T11:49:40;16.10;99.90
19813;DHT22;10066;48.108;11.448;2023-04-30T11:52:08;16.00;99.90
19813;DHT22;10066;48.108;11.448;2023-04-30T11:54:35;16.10;99.90
19813;DHT22;10066;48.108;11.448;2023-04-30T11:57:03;16.20;99.90
19813;DHT22;10066;48.108;11.448;2023-04-30T11:59:31;16.30;99.90
19813;DHT22;10066;48.108;11.448;2023-04-30T12:01:58;16.30;99.90
19813;DHT22;10066;48.108;11.448;2023-04-30T12:04:26;16.30;99.90
19813;DHT22;10066;48.108;11.448;2023-04-30T12:06:53;16.40;99.90
19813;DHT22;10066;48.108;11.448;2023-04-30T12:09:20;16.30;99.90
19813;DHT22;10066;48.108;11.448;2023-04-30T12:11:47;16.10;99.90
19813;DHT22;10066;48.108;11.448;2023-04-30T12:14:14;15.90;99.90
19813;DHT22;10066;48.108;11.448;2023-04-30T12:16:43;16.00;99.90
19813;DHT22;10066;48.108;11.448;2023-04-30T12:19:13;16.00;99.90
19813;DHT22;10066;48.108;11.448;2023-04-30T12:21:43;15.90;99.90
19813;DHT22;10066;48.108;11.448;2023-04-30T12:24:11;15.90;99.90
19813;DHT22;10066;48.108;11.448;2023-04-30T12:26:39;15.80;99.90
19813;DHT22;10066;48.108;11.448;2023-04-30T12:29:08;15.60;99.90
19813;DHT22;10066;48.108;11.448;2023-04-30T12:31:36;15.60;99.90
19813;DHT22;10066;48.108;11.448;2023-04-30T12:34:04;15.80;99.90
19813;DHT22;10066;48.108;11.448;2023-04-30T12:36:31;15.80;99.90
19813;DHT22;10066;48.108;11.448;2023-04-30T12:39:05;15.90;99.90
19813;DHT22;10066;48.108;11.448;2023-04-30T12:41:35;16.00;99.90
19813;DHT22;10066;48.108;11.448;2023-04-30T12:44:20;16.10;99.90
19813;DHT22;10066;48.108;11.448;2023-04-30T12:46:47;16.30;99.90
19813;DHT22;10066;48.108;11.448;2023-04-30T12:49:25;16.30;99.90
19813;DHT22;10066;48.108;11.448;2023-04-30T12:51:58;16.20;99.90
19813;DHT22;10066;48.108;11.448;2023-04-30T12:54:28;16.20;99.90
19813;DHT22;10066;48.108;11.448;2023-04-30T12:56:57;16.30;99.90
19813;DHT22;10066;48.108;11.448;2023-04-30T12:59:25;16.40;99.90
19813;DHT22;10066;48.108;11.448;2023-04-30T13:01:52;16.60;99.90
19813;DHT22;10066;48.108;11.448;2023-04-30T13:04:20;16.60;99.90
19813;DHT22;10066;48.108;11.448;2023-04-30T13:06:47;16.70;99.90
19813;DHT22;10066;48.108;11.448;2023-04-30T13:09:14;16.60;99.90
19813;DHT22;10066;48.108;11.448;2023-04-30T13:11:42;16.60;99.90
19813;DHT22;10066;48.108;11.448;2023-04-30T13:14:09;16.60;99.90
19813;DHT22;10066;48.108;11.448;2023-04-30T13:16:38;16.60;99.90
19813;DHT22;10066;48.108;11.448;2023-04-30T13:19:05;16.40;99.90
19813;DHT22;10066;48.108;11.448;2023-04-30T13:21:31;16.30;99.90
19813;DHT22;10066;48.108;11.448;2023-04-30T13:23:59;16.20;99.30
19813;DHT22;10066;48.108;11.448;2023-04-30T13:26:26;16.20;99.90
19813;DHT22;10066;48.108;11.448;2023-04-30T13:28:55;16.10;99.90
19813;DHT22;10066;48.108;11.448;2023-04-30T13:31:22;16.10;99.80
19813;DHT22;10066;48.108;11.448;2023-04-30T13:33:49;16.20;99.90
19813;DHT22;10066;48.108;11.448;2023-04-30T13:36:16;16.30;99.90
19813;DHT22;10066;48.108;11.448;2023-04-30T13:38:43;16.20;99.90
19813;DHT22;10066;48.108;11.448;2023-04-30T13:41:10;16.30;99.90
19813;DHT22;10066;48.108;11.448;2023-04-30T13:43:37;16.20;99.90
19813;DHT22;10066;48.108;11.448;2023-04-30T13:46:08;16.20;99.30
19813;DHT22;10066;48.108;11.448;2023-04-30T13:48:35;16.10;99.90
19813;DHT22;10066;48.108;11.448;2023-04-30T13:51:02;16.20;99.90
19813;DHT22;10066;48.108;11.448;2023-04-30T13:53:29;16.20;99.90
19813;DHT22;10066;48.108;11.448;2023-04-30T13:55:56;16.10;99.20
19813;DHT22;10066;48.108;11.448;2023-04-30T13:58:23;15.90;99.10
19813;DHT22;10066;48.108;11.448;2023-04-30T14:00:50;15.80;99.90
19813;DHT22;10066;48.108;11.448;2023-04-30T14:03:19;15.70;99.90
19813;DHT22;10066;48.108;11.448;2023-04-30T14:05:45;15.60;99.10
19813;DHT22;10066;48.108;11.448;2023-04-30T14:08:12;15.70;99.90
19813;DHT22;10066;48.108;11.448;2023-04-30T14:10:39;15.70;99.90
19813;DHT22;10066;48.108;11.448;2023-04-30T14:13:06;15.70;99.90
19813;DHT22;10066;48.108;11.448;2023-04-30T14:15:33;15.80;99.90
19813;DHT22;10066;48.108;11.448;2023-04-30T14:18:00;15.90;99.90
19813;DHT22;10066;48.108;11.448;2023-04-30T14:20:29;16.00;99.80
19813;DHT22;10066;48.108;11.448;2023-04-30T14:22:56;16.10;99.50
19813;DHT22;10066;48.108;11.448;2023-04-30T14:25:23;16.10;99.90
19813;DHT22;10066;48.108;11.448;2023-04-30T14:27:50;16.10;99.50
19813;DHT22;10066;48.108;11.448;2023-04-30T14:30:17;16.10;99.90
19813;DHT22;10066;48.108;11.448;2023-04-30T14:32:44;16.10;99.10
19813;DHT22;10066;48.108;11.448;2023-04-30T14:35:10;16.20;97.90
19813;DHT22;10066;48.108;11.448;2023-04-30T14:37:39;16.30;99.10
19813;DHT22;10066;48.108;11.448;2023-04-30T14:40:07;16.40;99.80
19813;DHT22;10066;48.108;11.448;2023-04-30T14:42:35;16.50;99.40
19813;DHT22;10066;48.108;11.448;2023-04-30T14:45:03;16.30;98.70
19813;DHT22;10066;48.108;11.448;2023-04-30T14:47:30;16.20;98.60
19813;DHT22;10066;48.108;11.448;2023-04-30T14:49:57;16.10;97.50
19813;DHT22;10066;48.108;11.448;2023-04-30T14:52:26;16.10;99.10
19813;DHT22;10066;48.108;11.448;2023-04-30T14:54:55;16.00;99.60
19813;DHT22;10066;48.108;11.448;2023-04-30T14:57:21;16.00;99.50
19813;DHT22;10066;48.108;11.448;2023-04-30T14:59:49;16.00;99.90
19813;DHT22;10066;48.108;11.448;2023-04-30T15:02:22;16.00;99.90
19813;DHT22;10066;48.108;11.448;2023-04-30T15:04:48;15.90;99.90
19813;DHT22;10066;48.108;11.448;2023-04-30T15:07:15;16.00;99.90
19813;DHT22;10066;48.108;11.448;2023-04-30T15:09:43;16.00;99.90
19813;DHT22;10066;48.108;11.448;2023-04-30T15:12:12;16.10;99.90
19813;DHT22;10066;48.108;11.448;2023-04-30T15:14:39;16.20;99.90
19813;DHT22;10066;48.108;11.448;2023-04-30T15:17:06;16.20;99.00
19813;DHT22;10066;48.108;11.448;2023-04-30T15:19:34;16.20;99.90
19813;DHT22;10066;48.108;11.448;2023-04-30T15:22:01;16.20;99.90
19813;DHT22;10066;48.108;11.448;2023-04-30T15:24:29;16.30;99.90
19813;DHT22;10066;48.108;11.448;2023-04-30T15:26:56;16.20;98.20
19813;DHT22;10066;48.108;11.448;2023-04-30T15:29:24;16.10;98.30
19813;DHT22;10066;48.108;11.448;2023-04-30T15:31:53;16.00;98.60